createdAt,value
2018-05-31T00:01:29.374Z,56.60
2018-05-31T00:03:56.965Z,56.35
2018-05-31T00:06:24.602Z,56.40
2018-05-31T00:08:52.180Z,56.57
2018-05-31T00:11:19.833Z,56.69
2018-05-31T00:13:47.457Z,56.61
2018-05-31T00:16:15.123Z,56.85
2018-05-31T00:18:43.562Z,56.98
2018-05-31T00:21:11.561Z,56.78
2018-05-31T00:23:39.226Z,56.87
2018-05-31T00:26:06.908Z,56.88
2018-05-31T00:28:34.569Z,56.91
2018-05-31T00:31:02.195Z,56.81
2018-05-31T00:33:29.746Z,56.71
2018-05-31T00:35:57.397Z,56.78
2018-05-31T00:38:24.999Z,57.00
2018-05-31T00:40:52.673Z,57.14
2018-05-31T00:43:20.251Z,57.53
2018-05-31T00:45:47.881Z,57.52
2018-05-31T00:48:15.446Z,57.48
2018-05-31T00:50:43.073Z,57.49
2018-05-31T00:53:10.697Z,57.54
2018-05-31T00:55:50.080Z,57.68
2018-05-31T00:58:17.745Z,57.97
2018-05-31T01:00:45.388Z,57.92
2018-05-31T01:03:12.980Z,57.94
2018-05-31T01:05:40.570Z,58.12
2018-05-31T01:08:08.147Z,58.27
2018-05-31T01:10:35.803Z,58.19
2018-05-31T01:13:03.410Z,58.03
2018-05-31T01:15:31.026Z,57.77
2018-05-31T01:17:58.573Z,57.70
2018-05-31T01:20:26.208Z,57.84
2018-05-31T01:22:53.750Z,57.80
2018-05-31T01:25:21.325Z,57.76
2018-05-31T01:27:48.917Z,57.63
2018-05-31T01:30:16.537Z,57.66
2018-05-31T01:32:44.098Z,57.79
2018-05-31T01:35:11.654Z,57.90
2018-05-31T01:37:39.249Z,57.80
2018-05-31T01:40:06.823Z,58.00
2018-05-31T01:42:34.430Z,58.15
2018-05-31T01:45:02.006Z,58.13
2018-05-31T01:47:29.586Z,57.97
2018-05-31T01:49:57.503Z,58.02
2018-05-31T01:52:25.131Z,58.06
2018-05-31T01:54:52.774Z,58.03
2018-05-31T01:57:20.373Z,58.09
2018-05-31T01:59:47.984Z,58.11
2018-05-31T02:02:15.566Z,57.92
2018-05-31T02:04:43.157Z,57.99
2018-05-31T02:07:10.765Z,57.98
2018-05-31T02:09:38.369Z,58.13
2018-05-31T02:12:05.996Z,57.90
2018-05-31T02:14:33.610Z,58.04
2018-05-31T02:17:01.260Z,58.44
2018-05-31T02:19:28.840Z,58.36
2018-05-31T02:21:56.452Z,58.53
2018-05-31T02:24:24.071Z,58.67
2018-05-31T02:26:51.715Z,58.67
2018-05-31T02:29:19.370Z,58.54
2018-05-31T02:31:47.040Z,58.78
2018-05-31T02:34:14.646Z,58.87
2018-05-31T02:36:42.239Z,59.00
2018-05-31T02:39:09.847Z,58.88
2018-05-31T02:41:37.436Z,58.89
2018-05-31T02:44:05.036Z,58.94
2018-05-31T02:46:32.646Z,58.90
2018-05-31T02:49:00.250Z,58.99
2018-05-31T02:51:27.836Z,58.94
2018-05-31T02:53:55.477Z,59.11
2018-05-31T02:56:23.088Z,59.06
2018-05-31T02:58:50.689Z,59.25
2018-05-31T03:01:18.292Z,59.20
2018-05-31T03:03:45.904Z,59.10
2018-05-31T03:06:13.522Z,58.89
2018-05-31T03:08:42.063Z,58.92
2018-05-31T03:11:09.696Z,58.94
2018-05-31T03:13:37.273Z,58.94
2018-05-31T03:16:04.838Z,58.82
2018-05-31T03:18:32.425Z,58.88
2018-05-31T03:21:00.055Z,58.93
2018-05-31T03:23:27.719Z,59.06
2018-05-31T03:25:55.353Z,58.99
2018-05-31T03:28:22.990Z,58.89
2018-05-31T03:30:50.654Z,58.81
2018-05-31T03:33:18.279Z,58.81
2018-05-31T03:35:45.893Z,58.92
2018-05-31T03:38:13.512Z,58.80
2018-05-31T03:40:41.633Z,59.06
2018-05-31T03:43:09.244Z,59.16
2018-05-31T03:45:36.834Z,58.62
2018-05-31T03:48:04.477Z,58.66
2018-05-31T03:50:32.101Z,58.80
2018-05-31T03:52:59.729Z,58.73
2018-05-31T03:55:27.346Z,58.64
2018-05-31T03:57:54.958Z,58.48
2018-05-31T04:00:22.571Z,58.55
2018-05-31T04:02:50.351Z,58.51
2018-05-31T04:05:17.992Z,58.69
2018-05-31T04:07:45.626Z,58.55
2018-05-31T04:10:13.177Z,58.70
2018-05-31T04:12:40.871Z,58.56
2018-05-31T04:15:09.329Z,58.60
2018-05-31T04:17:36.918Z,58.44
2018-05-31T04:20:04.557Z,58.39
2018-05-31T04:22:32.198Z,58.37
2018-05-31T04:24:59.802Z,57.89
2018-05-31T04:27:27.377Z,57.61
2018-05-31T04:29:54.993Z,57.46
2018-05-31T04:32:22.594Z,57.55
2018-05-31T04:34:50.260Z,57.66
2018-05-31T04:37:17.890Z,57.63
2018-05-31T04:39:45.607Z,57.44
2018-05-31T04:42:13.253Z,57.51
2018-05-31T04:44:40.873Z,57.74
2018-05-31T04:47:08.471Z,57.59
2018-05-31T04:49:36.144Z,57.33
2018-05-31T04:52:03.800Z,57.17
2018-05-31T04:54:31.419Z,57.06
2018-05-31T04:56:58.972Z,56.87
2018-05-31T04:59:26.685Z,57.13
2018-05-31T05:01:54.343Z,56.81
2018-05-31T05:04:21.924Z,56.78
2018-05-31T05:06:49.494Z,56.70
2018-05-31T05:09:17.140Z,56.36
2018-05-31T05:11:44.742Z,56.20
2018-05-31T05:14:12.340Z,55.09
2018-05-31T05:16:39.938Z,55.50
2018-05-31T05:19:07.575Z,55.93
2018-05-31T05:21:35.208Z,55.94
2018-05-31T05:24:02.813Z,55.97
2018-05-31T05:26:30.461Z,55.97
2018-05-31T05:28:58.012Z,55.93
2018-05-31T05:31:25.660Z,54.89
2018-05-31T05:33:53.305Z,54.18
2018-05-31T05:36:20.868Z,54.05
2018-05-31T05:38:49.030Z,53.65
2018-05-31T05:41:16.614Z,53.20
2018-05-31T05:43:44.227Z,52.76
2018-05-31T05:46:11.793Z,52.56
2018-05-31T05:48:39.396Z,52.19
2018-05-31T05:51:06.952Z,51.58
2018-05-31T05:53:34.514Z,50.77
2018-05-31T05:56:02.062Z,49.42
2018-05-31T05:58:29.642Z,47.87
2018-05-31T06:00:57.193Z,47.17
2018-05-31T06:03:24.738Z,46.77
2018-05-31T06:05:52.297Z,45.55
2018-05-31T06:08:19.842Z,44.95
2018-05-31T06:10:47.420Z,43.57
2018-05-31T06:13:14.960Z,41.91
2018-05-31T06:15:42.561Z,40.46
2018-05-31T06:18:10.218Z,39.75
2018-05-31T06:20:37.803Z,39.90
2018-05-31T06:23:05.360Z,39.30
2018-05-31T06:25:32.930Z,39.39
2018-05-31T06:28:00.483Z,38.80
2018-05-31T06:30:28.053Z,38.46
2018-05-31T06:32:55.587Z,37.77
2018-05-31T06:35:23.228Z,36.88
2018-05-31T06:40:22.811Z,35.17
2018-05-31T06:42:50.965Z,34.35
2018-05-31T06:45:18.599Z,33.70
2018-05-31T06:47:46.250Z,32.71
2018-05-31T06:50:13.927Z,31.49
2018-05-31T06:52:41.465Z,30.96
2018-05-31T06:55:09.032Z,30.46
2018-05-31T06:57:36.574Z,29.77
2018-05-31T07:00:04.116Z,29.64
2018-05-31T07:02:31.681Z,29.35
2018-05-31T07:04:59.323Z,29.57
2018-05-31T07:07:26.999Z,30.25
2018-05-31T07:09:54.902Z,30.25
2018-05-31T07:12:22.488Z,30.56
2018-05-31T07:14:50.117Z,30.81
2018-05-31T07:17:17.647Z,31.54
2018-05-31T07:19:45.213Z,32.03
2018-05-31T07:22:12.764Z,32.63
2018-05-31T07:24:40.374Z,32.72
2018-05-31T07:27:07.990Z,32.80
2018-05-31T07:29:35.569Z,33.38
2018-05-31T07:32:03.125Z,33.53
2018-05-31T07:34:30.671Z,34.04
2018-05-31T07:36:58.237Z,33.47
2018-05-31T07:39:25.786Z,33.00
2018-05-31T07:41:53.381Z,31.79
2018-05-31T07:44:20.989Z,30.60
2018-05-31T07:46:48.530Z,29.55
2018-05-31T07:49:16.111Z,29.37
2018-05-31T07:51:43.743Z,28.52
2018-05-31T07:54:11.363Z,27.95
2018-05-31T07:56:38.919Z,28.80
2018-05-31T07:59:06.514Z,29.14
2018-05-31T08:01:34.105Z,29.15
2018-05-31T08:04:01.697Z,28.84
2018-05-31T08:06:29.252Z,28.45
2018-05-31T08:08:56.817Z,27.53
2018-05-31T08:11:24.396Z,26.44
2018-05-31T08:13:51.936Z,26.85
2018-05-31T08:16:19.530Z,27.22
2018-05-31T08:18:47.109Z,27.67
2018-05-31T08:21:14.713Z,28.00
2018-05-31T08:23:42.312Z,28.56
2018-05-31T08:26:09.935Z,28.93
2018-05-31T08:28:37.535Z,29.34
2018-05-31T08:31:05.141Z,29.65
2018-05-31T08:33:32.689Z,29.65
2018-05-31T08:36:00.254Z,29.49
2018-05-31T08:38:27.829Z,30.01
2018-05-31T08:40:55.449Z,29.54
2018-05-31T08:43:23.011Z,29.59
2018-05-31T08:45:50.601Z,30.20
2018-05-31T08:48:18.188Z,29.83
2018-05-31T08:50:45.778Z,29.90
2018-05-31T08:53:13.390Z,30.15
2018-05-31T08:55:41.015Z,29.82
2018-05-31T08:58:08.707Z,30.06
2018-05-31T09:00:36.315Z,30.37
2018-05-31T09:03:03.886Z,29.92
2018-05-31T09:05:31.433Z,30.54
2018-05-31T09:07:59.031Z,30.66
2018-05-31T09:10:26.638Z,30.73
2018-05-31T09:12:54.206Z,30.97
2018-05-31T09:15:21.788Z,31.37
2018-05-31T09:17:49.414Z,30.79
2018-05-31T09:20:16.997Z,31.52
2018-05-31T09:22:44.581Z,31.50
2018-05-31T09:25:12.212Z,30.96
2018-05-31T09:27:39.767Z,30.84
2018-05-31T09:30:07.385Z,30.72
2018-05-31T09:32:34.997Z,29.99
2018-05-31T09:35:02.660Z,29.63
2018-05-31T09:37:30.212Z,29.84
2018-05-31T09:39:57.765Z,29.28
2018-05-31T09:42:25.317Z,28.42
2018-05-31T09:44:53.029Z,29.27
2018-05-31T09:47:20.708Z,28.10
2018-05-31T09:49:48.278Z,28.38
2018-05-31T09:52:15.842Z,28.75
2018-05-31T09:54:43.433Z,28.15
2018-05-31T09:57:11.065Z,27.76
2018-05-31T09:59:38.741Z,27.44
2018-05-31T10:02:06.308Z,27.35
2018-05-31T10:04:33.869Z,26.52
2018-05-31T10:07:02.034Z,25.80
2018-05-31T10:09:29.616Z,25.29
2018-05-31T10:11:57.210Z,24.45
2018-05-31T10:14:24.812Z,24.12
2018-05-31T10:16:52.426Z,24.81
2018-05-31T10:19:19.998Z,24.56
2018-05-31T10:21:47.575Z,24.36
2018-05-31T10:24:15.160Z,24.71
2018-05-31T10:26:42.754Z,23.70
2018-05-31T10:29:10.295Z,22.46
2018-05-31T10:31:37.897Z,21.73
2018-05-31T10:34:07.400Z,22.21
2018-05-31T10:36:36.465Z,22.49
2018-05-31T10:39:05.205Z,22.32
2018-05-31T10:41:32.814Z,21.85
2018-05-31T10:44:01.018Z,20.67
2018-05-31T10:46:28.699Z,20.20
2018-05-31T10:48:56.271Z,20.20
2018-05-31T10:51:23.969Z,21.10
2018-05-31T10:53:51.609Z,21.81
2018-05-31T10:56:19.164Z,22.52
2018-05-31T10:58:46.734Z,23.51
2018-05-31T11:01:14.254Z,22.96
2018-05-31T11:03:41.872Z,21.89
2018-05-31T11:06:09.397Z,21.07
2018-05-31T11:08:36.976Z,19.81
2018-05-31T11:11:04.528Z,18.84
2018-05-31T11:13:32.116Z,18.47
2018-05-31T11:15:59.704Z,18.60
2018-05-31T11:18:27.247Z,18.22
2018-05-31T11:20:54.796Z,19.47
2018-05-31T11:23:22.344Z,18.84
2018-05-31T11:25:49.936Z,19.45
2018-05-31T11:28:17.554Z,19.94
2018-05-31T11:30:45.113Z,20.47
2018-05-31T11:33:12.715Z,21.64
2018-05-31T11:35:40.331Z,22.15
2018-05-31T11:38:07.892Z,23.04
2018-05-31T11:40:35.514Z,23.55
2018-05-31T11:43:03.139Z,23.93
2018-05-31T11:45:30.737Z,24.32
2018-05-31T11:47:58.325Z,24.75
2018-05-31T11:50:25.889Z,25.79
2018-05-31T11:52:53.429Z,25.47
2018-05-31T11:55:21.030Z,25.44
2018-05-31T11:57:48.610Z,25.75
2018-05-31T12:00:16.243Z,26.14
2018-05-31T12:02:43.841Z,25.77
2018-05-31T12:05:11.424Z,26.12
2018-05-31T12:07:38.996Z,26.24
2018-05-31T12:10:06.663Z,26.66
2018-05-31T12:12:34.259Z,27.53
2018-05-31T12:15:01.834Z,27.92
2018-05-31T12:17:29.476Z,27.94
2018-05-31T12:19:57.077Z,28.53
2018-05-31T12:22:24.622Z,28.81
2018-05-31T12:24:52.207Z,29.53
2018-05-31T12:27:19.853Z,29.96
2018-05-31T12:29:47.422Z,30.06
2018-05-31T12:32:15.043Z,29.78
2018-05-31T12:34:42.646Z,29.97
2018-05-31T12:37:10.163Z,30.55
2018-05-31T12:39:38.926Z,30.15
2018-05-31T12:42:06.557Z,30.78
2018-05-31T12:44:34.198Z,31.05
2018-05-31T12:47:01.790Z,31.01
2018-05-31T12:49:29.421Z,30.17
2018-05-31T12:51:57.033Z,30.26
2018-05-31T12:54:24.601Z,30.50
2018-05-31T12:56:52.180Z,30.48
2018-05-31T12:59:19.745Z,30.23
2018-05-31T13:01:47.563Z,29.66
2018-05-31T13:04:15.158Z,29.28
2018-05-31T13:06:42.757Z,29.16
2018-05-31T13:09:11.238Z,29.62
2018-05-31T13:11:38.830Z,29.63
2018-05-31T13:14:06.357Z,29.72
2018-05-31T13:16:33.941Z,30.04
2018-05-31T13:19:01.597Z,29.74
2018-05-31T13:21:29.207Z,29.69
2018-05-31T13:23:56.774Z,29.76
2018-05-31T13:26:24.452Z,29.41
2018-05-31T13:28:52.026Z,29.71
2018-05-31T13:31:19.657Z,29.53
2018-05-31T13:33:47.198Z,29.22
2018-05-31T13:36:14.827Z,29.22
2018-05-31T13:38:42.406Z,29.34
2018-05-31T13:41:10.136Z,29.18
2018-05-31T13:43:37.724Z,29.39
2018-05-31T13:46:05.407Z,29.25
2018-05-31T13:48:33.071Z,29.36
2018-05-31T13:51:00.722Z,29.67
2018-05-31T13:53:28.310Z,30.55
2018-05-31T13:55:55.890Z,30.24
2018-05-31T13:58:23.511Z,29.87
2018-05-31T14:00:51.110Z,30.20
2018-05-31T14:03:18.797Z,30.53
2018-05-31T14:05:46.453Z,31.24
2018-05-31T14:08:14.159Z,31.64
2018-05-31T14:10:41.806Z,30.84
2018-05-31T14:13:09.565Z,30.63
2018-05-31T14:15:37.297Z,30.64
2018-05-31T14:18:05.066Z,30.70
2018-05-31T14:20:32.832Z,30.29
2018-05-31T14:23:00.430Z,31.60
2018-05-31T14:25:28.567Z,30.36
2018-05-31T14:27:56.253Z,30.52
2018-05-31T14:30:23.779Z,30.25
2018-05-31T14:32:51.574Z,30.58
2018-05-31T14:35:19.210Z,31.51
2018-05-31T14:37:46.996Z,31.56
2018-05-31T14:40:14.676Z,31.80
2018-05-31T14:42:42.312Z,32.25
2018-05-31T14:45:09.939Z,31.79
2018-05-31T14:47:37.535Z,31.75
2018-05-31T14:50:05.123Z,31.69
2018-05-31T14:52:36.473Z,31.71
2018-05-31T14:55:04.059Z,31.77
2018-05-31T14:57:31.652Z,32.54
2018-05-31T14:59:59.322Z,33.20
2018-05-31T15:02:26.954Z,32.89
2018-05-31T15:04:54.532Z,32.71
2018-05-31T15:07:22.115Z,32.57
2018-05-31T15:09:49.711Z,32.33
2018-05-31T15:12:17.268Z,32.57
2018-05-31T15:14:44.845Z,32.10
2018-05-31T15:17:12.479Z,31.95
2018-05-31T15:19:40.056Z,31.97
2018-05-31T15:22:07.611Z,32.14
2018-05-31T15:24:35.133Z,32.84
2018-05-31T15:27:02.694Z,32.75
2018-05-31T15:29:30.294Z,32.70
2018-05-31T15:31:57.889Z,32.69
2018-05-31T15:34:25.446Z,32.81
2018-05-31T15:36:53.029Z,33.18
2018-05-31T15:39:20.603Z,32.99
2018-05-31T15:41:48.162Z,32.83
2018-05-31T15:44:15.754Z,32.79
2018-05-31T15:46:43.341Z,32.86
2018-05-31T15:49:10.917Z,33.26
2018-05-31T15:51:38.472Z,32.86
2018-05-31T15:54:06.079Z,32.72
2018-05-31T15:56:33.662Z,32.80
2018-05-31T15:59:01.275Z,32.31
2018-05-31T16:01:28.819Z,32.19
2018-05-31T16:03:56.401Z,31.59
2018-05-31T16:06:23.965Z,31.65
2018-05-31T16:08:51.526Z,31.73
2018-05-31T16:11:19.161Z,32.20
2018-05-31T16:13:46.775Z,31.89
2018-05-31T16:16:14.367Z,31.72
2018-05-31T16:18:41.944Z,31.68
2018-05-31T16:21:09.914Z,31.97
2018-05-31T16:23:38.738Z,31.75
2018-05-31T16:26:06.400Z,31.80
2018-05-31T16:28:34.057Z,32.43
2018-05-31T16:31:01.667Z,32.27
2018-05-31T16:33:29.553Z,32.16
2018-05-31T16:35:57.199Z,31.92
2018-05-31T16:38:24.795Z,32.04
2018-05-31T16:40:52.420Z,31.33
2018-05-31T16:43:20.153Z,31.84
2018-05-31T16:45:48.728Z,32.18
2018-05-31T16:48:16.384Z,31.93
2018-05-31T16:50:43.972Z,32.10
2018-05-31T16:53:12.026Z,32.05
2018-05-31T16:55:39.610Z,31.94
2018-05-31T16:58:07.243Z,31.96
2018-05-31T17:00:34.771Z,32.51
2018-05-31T17:03:02.390Z,32.28
2018-05-31T17:05:30.023Z,32.99
2018-05-31T17:07:57.741Z,32.46
2018-05-31T17:10:25.327Z,32.39
2018-05-31T17:12:52.899Z,32.56
2018-05-31T17:15:20.461Z,32.63
2018-05-31T17:17:48.044Z,32.23
2018-05-31T17:20:15.626Z,32.20
2018-05-31T17:22:43.216Z,31.89
2018-05-31T17:25:10.796Z,32.21
2018-05-31T17:27:38.358Z,32.60
2018-05-31T17:30:05.988Z,32.58
2018-05-31T17:32:33.593Z,32.83
2018-05-31T17:35:01.161Z,32.75
2018-05-31T17:37:28.716Z,32.34
2018-05-31T17:39:56.332Z,32.69
2018-05-31T17:42:23.920Z,32.81
2018-05-31T17:44:51.534Z,33.37
2018-05-31T17:47:19.092Z,33.88
2018-05-31T17:49:46.677Z,34.40
2018-05-31T17:52:14.231Z,34.75
2018-05-31T17:54:41.823Z,35.54
2018-05-31T17:57:09.388Z,35.95
2018-05-31T17:59:37.006Z,36.04
2018-05-31T18:02:04.571Z,36.13
2018-05-31T18:04:32.131Z,36.16
2018-05-31T18:06:59.905Z,36.32
2018-05-31T18:09:27.485Z,35.30
2018-05-31T18:11:55.053Z,35.17
2018-05-31T18:14:22.697Z,35.51
2018-05-31T18:16:50.221Z,35.75
2018-05-31T18:19:18.805Z,35.41
2018-05-31T18:21:46.354Z,34.92
2018-05-31T18:24:13.941Z,35.10
2018-05-31T18:26:41.503Z,35.21
2018-05-31T18:29:09.093Z,35.32
2018-05-31T18:31:36.693Z,35.77
2018-05-31T18:34:04.234Z,35.69
2018-05-31T18:36:31.829Z,36.11
2018-05-31T18:38:59.419Z,36.38
2018-05-31T18:41:26.983Z,36.27
2018-05-31T18:43:54.537Z,37.03
2018-05-31T18:46:22.116Z,37.17
2018-05-31T18:48:49.683Z,37.37
2018-05-31T18:51:20.277Z,37.82
2018-05-31T18:53:47.832Z,38.30
2018-05-31T18:56:15.415Z,38.34
2018-05-31T18:58:42.974Z,38.85
2018-05-31T19:01:10.626Z,39.09
2018-05-31T19:03:38.169Z,39.20
2018-05-31T19:06:05.796Z,39.70
2018-05-31T19:08:33.363Z,40.18
2018-05-31T19:11:01.002Z,40.39
2018-05-31T19:13:34.181Z,40.43
2018-05-31T19:16:01.768Z,40.76
2018-05-31T19:18:34.866Z,41.25
2018-05-31T19:21:02.487Z,41.71
2018-05-31T19:23:30.084Z,41.84
2018-05-31T19:25:57.696Z,42.24
2018-05-31T19:28:25.287Z,42.59
2018-05-31T19:30:58.406Z,42.97
2018-05-31T19:33:25.989Z,43.46
2018-05-31T19:35:59.198Z,43.84
2018-05-31T19:38:26.753Z,44.22
2018-05-31T19:40:54.351Z,44.62
2018-05-31T19:43:27.551Z,44.89
2018-05-31T19:45:55.138Z,45.31
2018-05-31T19:48:22.724Z,45.43
2018-05-31T19:50:50.316Z,45.57
2018-05-31T19:53:23.513Z,45.87
2018-05-31T19:55:51.174Z,46.11
2018-05-31T19:58:24.362Z,46.10
2018-05-31T20:00:57.551Z,46.23
2018-05-31T20:03:30.665Z,46.59
2018-05-31T20:05:58.267Z,46.98
2018-05-31T20:08:25.828Z,47.58
2018-05-31T20:10:53.424Z,47.86
2018-05-31T20:13:21.078Z,47.91
2018-05-31T20:15:48.716Z,48.18
2018-05-31T20:18:16.411Z,48.43
2018-05-31T20:20:43.961Z,48.68
2018-05-31T20:23:11.597Z,48.99
2018-05-31T20:25:39.219Z,49.11
2018-05-31T20:28:06.834Z,49.23
2018-05-31T20:30:34.413Z,49.41
2018-05-31T20:33:01.999Z,49.41
2018-05-31T20:35:29.629Z,49.59
2018-05-31T20:37:57.626Z,49.82
2018-05-31T20:40:25.215Z,50.10
2018-05-31T20:42:52.797Z,50.38
2018-05-31T20:45:20.435Z,50.69
2018-05-31T20:47:47.997Z,51.03
2018-05-31T20:50:15.584Z,51.32
2018-05-31T20:52:43.195Z,51.44
2018-05-31T20:55:10.787Z,51.71
2018-05-31T20:57:38.474Z,51.78
2018-05-31T21:00:06.097Z,51.84
2018-05-31T21:02:34.309Z,52.02
2018-05-31T21:05:01.886Z,52.13
2018-05-31T21:07:29.534Z,52.48
2018-05-31T21:09:57.133Z,52.29
2018-05-31T21:12:24.719Z,52.63
2018-05-31T21:14:52.343Z,53.01
2018-05-31T21:17:19.944Z,53.17
2018-05-31T21:19:47.535Z,53.43
2018-05-31T21:22:15.096Z,53.56
2018-05-31T21:24:42.670Z,53.61
2018-05-31T21:27:10.343Z,53.88
2018-05-31T21:29:37.924Z,54.15
2018-05-31T21:32:05.504Z,54.13
2018-05-31T21:34:33.078Z,53.88
2018-05-31T21:37:00.746Z,54.04
2018-05-31T21:39:28.304Z,53.73
2018-05-31T21:41:55.890Z,53.90
2018-05-31T21:44:23.453Z,54.04
2018-05-31T21:46:51.038Z,54.33
2018-05-31T21:49:18.636Z,54.51
2018-05-31T21:51:46.170Z,54.48
2018-05-31T21:54:13.763Z,54.55
2018-05-31T21:56:42.618Z,54.62
2018-05-31T21:59:10.208Z,54.74
2018-05-31T22:01:37.826Z,55.02
2018-05-31T22:04:05.416Z,55.43
2018-05-31T22:06:33.356Z,55.54
2018-05-31T22:09:00.942Z,55.54
2018-05-31T22:11:28.727Z,55.53
2018-05-31T22:13:56.290Z,55.74
2018-05-31T22:16:23.966Z,55.88
2018-05-31T22:18:51.584Z,56.01
2018-05-31T22:21:19.209Z,56.20
2018-05-31T22:23:47.070Z,56.35
2018-05-31T22:26:14.645Z,56.35
2018-05-31T22:28:42.225Z,56.24
2018-05-31T22:31:10.280Z,56.33
2018-05-31T22:33:37.949Z,56.41
2018-05-31T22:36:05.545Z,56.59
2018-05-31T22:38:33.163Z,56.67
2018-05-31T22:41:00.730Z,56.80
2018-05-31T22:43:28.354Z,56.96
2018-05-31T22:45:55.980Z,56.87
2018-05-31T22:48:23.567Z,57.04
2018-05-31T22:50:51.197Z,57.11
2018-05-31T22:53:18.856Z,57.18
2018-05-31T22:55:46.476Z,57.12
2018-05-31T22:58:14.071Z,57.26
2018-05-31T23:00:41.670Z,57.24
2018-05-31T23:03:09.209Z,57.18
2018-05-31T23:05:37.426Z,57.23
2018-05-31T23:08:05.112Z,57.08
2018-05-31T23:10:32.721Z,57.36
2018-05-31T23:13:00.303Z,57.33
2018-05-31T23:15:27.880Z,57.61
2018-05-31T23:17:55.996Z,57.70
2018-05-31T23:20:23.596Z,57.86
2018-05-31T23:22:51.150Z,58.07
2018-05-31T23:25:18.711Z,58.10
2018-05-31T23:27:46.361Z,58.07
2018-05-31T23:30:14.747Z,57.91
2018-05-31T23:32:42.340Z,57.73
2018-05-31T23:35:09.985Z,57.77
2018-05-31T23:37:37.587Z,57.79
2018-05-31T23:40:05.177Z,57.76
2018-05-31T23:42:32.717Z,57.90
2018-05-31T23:45:00.299Z,58.05
2018-05-31T23:47:27.877Z,58.24
2018-05-31T23:49:55.457Z,58.32
2018-05-31T23:52:23.036Z,58.54
2018-05-31T23:54:50.615Z,58.74
2018-05-31T23:57:18.192Z,58.28
2018-05-31T23:59:45.808Z,58.02
